createdAt,value
2018-01-04T00:00:23.142Z,80.92
2018-01-04T00:02:49.172Z,80.38
2018-01-04T00:05:15.208Z,79.88
2018-01-04T00:07:41.254Z,80.13
2018-01-04T00:10:09.349Z,79.88
2018-01-04T00:15:06.990Z,79.51
2018-01-04T00:20:05.950Z,79.56
2018-01-04T00:22:31.952Z,79.72
2018-01-04T00:24:57.984Z,79.96
2018-01-04T00:27:24.073Z,79.64
2018-01-04T00:29:50.080Z,80.20
2018-01-04T00:32:16.174Z,79.84
2018-01-04T00:34:42.256Z,80.41
2018-01-04T00:37:08.265Z,80.45
2018-01-04T00:39:34.296Z,80.62
2018-01-04T00:42:00.317Z,80.83
2018-01-04T00:44:26.348Z,81.03
2018-01-04T00:46:52.345Z,80.58
2018-01-04T00:49:18.416Z,80.62
2018-01-04T00:51:44.472Z,80.31
2018-01-04T00:54:10.484Z,80.37
2018-01-04T00:56:36.565Z,80.11
2018-01-04T00:59:02.522Z,80.27
2018-01-04T01:01:28.533Z,80.50
2018-01-04T01:03:54.566Z,80.76
2018-01-04T01:06:20.590Z,80.98
2018-01-04T01:08:46.648Z,80.75
2018-01-04T01:11:12.721Z,80.30
2018-01-04T01:13:38.769Z,79.97
2018-01-04T01:16:04.813Z,79.88
2018-01-04T01:18:30.901Z,80.19
2018-01-04T01:20:56.921Z,79.90
2018-01-04T01:23:22.941Z,80.40
2018-01-04T01:25:49.040Z,79.76
2018-01-04T01:28:15.065Z,79.94
2018-01-04T01:30:41.100Z,79.87
2018-01-04T01:33:07.114Z,79.34
2018-01-04T01:35:33.136Z,79.39
2018-01-04T01:37:59.199Z,79.53
2018-01-04T01:40:25.168Z,79.73
2018-01-04T01:42:51.215Z,79.61
2018-01-04T01:47:49.021Z,79.77
2018-01-04T01:50:15.139Z,79.76
2018-01-04T01:52:41.233Z,79.37
2018-01-04T01:55:07.300Z,79.15
2018-01-04T01:57:33.333Z,79.03
2018-01-04T01:59:59.276Z,78.73
2018-01-04T02:02:28.128Z,79.10
2018-01-04T02:04:54.166Z,79.43
2018-01-04T02:07:20.220Z,79.50
2018-01-04T02:09:46.211Z,79.29
2018-01-04T02:12:12.237Z,79.42
2018-01-04T02:14:38.233Z,79.46
2018-01-04T02:17:04.281Z,79.73
2018-01-04T02:19:42.492Z,80.80
2018-01-04T02:22:21.264Z,81.80
2018-01-04T02:24:59.550Z,82.37
2018-01-04T02:27:37.765Z,83.04
2018-01-04T02:30:16.005Z,83.47
2018-01-04T02:32:54.381Z,84.21
2018-01-04T02:35:36.353Z,84.79
2018-01-04T02:38:14.521Z,85.38
2018-01-04T02:40:51.583Z,85.30
2018-01-04T02:43:29.702Z,85.71
2018-01-04T02:48:57.757Z,85.89
2018-01-04T02:51:23.857Z,85.95
2018-01-04T02:53:49.873Z,86.04
2018-01-04T02:56:15.948Z,86.54
2018-01-04T02:58:42.006Z,87.19
2018-01-04T03:01:08.047Z,87.09
2018-01-04T03:03:34.072Z,86.89
2018-01-04T03:06:00.093Z,86.68
2018-01-04T03:08:26.137Z,87.42
2018-01-04T03:10:52.148Z,87.88
2018-01-04T03:13:18.224Z,88.08
2018-01-04T03:15:44.193Z,88.62
2018-01-04T03:18:10.212Z,88.44
2018-01-04T03:20:36.245Z,88.69
2018-01-04T03:23:08.481Z,89.43
2018-01-04T03:25:40.521Z,90.12
2018-01-04T03:28:12.601Z,90.09
2018-01-04T03:30:44.778Z,90.38
2018-01-04T03:33:16.809Z,90.25
2018-01-04T03:35:48.833Z,90.45
2018-01-04T03:38:20.936Z,90.33
2018-01-04T03:40:53.002Z,90.32
2018-01-04T03:43:25.039Z,90.39
2018-01-04T03:45:57.105Z,89.49
2018-01-04T03:48:27.008Z,89.84
2018-01-04T03:50:59.277Z,90.48
2018-01-04T03:53:31.395Z,90.55
2018-01-04T03:56:03.501Z,90.22
2018-01-04T03:58:35.562Z,90.62
2018-01-04T04:01:07.685Z,90.13
2018-01-04T04:03:33.665Z,90.21
2018-01-04T04:06:05.786Z,89.59
2018-01-04T04:08:37.875Z,89.87
2018-01-04T04:11:05.763Z,89.62
2018-01-04T04:13:31.749Z,89.48
2018-01-04T04:15:57.837Z,89.28
2018-01-04T04:18:23.886Z,88.97
2018-01-04T04:20:49.973Z,88.39
2018-01-04T04:23:15.985Z,88.48
2018-01-04T04:25:42.032Z,88.20
2018-01-04T04:28:08.029Z,88.15
2018-01-04T04:30:34.026Z,87.62
2018-01-04T04:33:00.068Z,87.54
2018-01-04T04:35:26.156Z,87.63
2018-01-04T04:37:52.231Z,87.49
2018-01-04T04:40:18.250Z,87.24
2018-01-04T04:42:44.336Z,87.09
2018-01-04T04:45:10.334Z,86.71
2018-01-04T04:47:36.365Z,86.68
2018-01-04T04:50:02.496Z,86.54
2018-01-04T04:52:28.577Z,86.46
2018-01-04T04:54:54.600Z,85.94
2018-01-04T04:57:20.576Z,85.92
2018-01-04T04:59:46.645Z,86.06
2018-01-04T05:02:12.668Z,85.96
2018-01-04T05:04:38.721Z,85.38
2018-01-04T05:07:04.828Z,85.53
2018-01-04T05:09:30.901Z,85.56
2018-01-04T05:11:56.912Z,86.01
2018-01-04T05:14:22.936Z,85.39
2018-01-04T05:16:48.976Z,85.60
2018-01-04T05:19:15.017Z,84.86
2018-01-04T05:21:41.087Z,84.80
2018-01-04T05:24:07.108Z,84.22
2018-01-04T05:26:33.144Z,84.46
2018-01-04T05:28:59.192Z,84.08
2018-01-04T05:31:25.312Z,84.36
2018-01-04T05:33:51.297Z,83.99
2018-01-04T05:36:17.317Z,84.01
2018-01-04T05:38:43.313Z,84.33
2018-01-04T05:41:09.345Z,84.26
2018-01-04T05:43:35.415Z,84.39
2018-01-04T05:46:01.400Z,84.63
2018-01-04T05:48:27.645Z,84.71
2018-01-04T05:50:53.671Z,84.69
2018-01-04T05:53:19.674Z,84.77
2018-01-04T05:55:45.748Z,85.03
2018-01-04T05:58:11.796Z,85.02
2018-01-04T06:00:37.877Z,85.18
2018-01-04T06:03:03.877Z,85.59
2018-01-04T06:05:29.896Z,85.97
2018-01-04T06:07:55.881Z,86.26
2018-01-04T06:10:21.905Z,86.66
2018-01-04T06:12:47.933Z,86.69
2018-01-04T06:15:13.921Z,87.09
2018-01-04T06:17:41.900Z,87.05
2018-01-04T06:20:07.936Z,87.49
2018-01-04T06:22:33.965Z,87.76
2018-01-04T06:24:59.970Z,88.08
2018-01-04T06:27:26.869Z,88.31
2018-01-04T06:29:52.933Z,88.52
2018-01-04T06:32:18.933Z,88.42
2018-01-04T06:34:44.936Z,88.52
2018-01-04T06:37:11.017Z,88.69
2018-01-04T06:39:37.069Z,88.88
2018-01-04T06:42:03.076Z,89.00
2018-01-04T06:44:29.112Z,89.14
2018-01-04T06:46:55.437Z,89.21
2018-01-04T06:49:21.502Z,89.19
2018-01-04T06:51:47.517Z,89.40
2018-01-04T06:54:13.597Z,89.52
2018-01-04T06:56:39.640Z,89.57
2018-01-04T06:59:05.660Z,89.72
2018-01-04T07:01:31.780Z,89.68
2018-01-04T07:03:57.751Z,89.64
2018-01-04T07:06:23.815Z,89.62
2018-01-04T07:08:49.823Z,89.68
2018-01-04T07:11:15.832Z,89.67
2018-01-04T07:13:41.861Z,89.51
2018-01-04T07:16:07.880Z,89.52
2018-01-04T07:18:33.940Z,89.39
2018-01-04T07:20:59.938Z,89.51
2018-01-04T07:23:36.002Z,89.45
2018-01-04T07:26:02.077Z,89.50
2018-01-04T07:28:28.085Z,89.75
2018-01-04T07:30:54.141Z,89.76
2018-01-04T07:33:20.187Z,89.68
2018-01-04T07:35:46.233Z,89.94
2018-01-04T07:38:12.315Z,89.81
2018-01-04T07:40:38.365Z,89.82
2018-01-04T07:43:04.372Z,89.92
2018-01-04T07:45:30.418Z,89.84
2018-01-04T07:47:56.446Z,89.74
2018-01-04T07:50:22.505Z,89.79
2018-01-04T07:52:48.597Z,89.74
2018-01-04T07:55:14.588Z,89.53
2018-01-04T07:57:40.664Z,89.40
2018-01-04T08:00:06.733Z,89.33
2018-01-04T08:02:32.741Z,89.28
2018-01-04T08:04:58.773Z,89.14
2018-01-04T08:07:26.393Z,89.16
2018-01-04T08:09:52.357Z,89.27
2018-01-04T08:12:18.464Z,89.05
2018-01-04T08:14:44.495Z,89.06
2018-01-04T08:17:10.773Z,89.13
2018-01-04T08:19:36.830Z,89.17
2018-01-04T08:22:02.914Z,89.29
2018-01-04T08:24:28.981Z,89.26
2018-01-04T08:26:55.023Z,89.18
2018-01-04T08:29:21.337Z,88.93
2018-01-04T08:31:47.436Z,89.04
2018-01-04T08:34:13.412Z,88.81
2018-01-04T08:36:39.426Z,88.81
2018-01-04T08:39:05.451Z,88.71
2018-01-04T08:41:31.482Z,88.85
2018-01-04T08:43:57.529Z,88.59
2018-01-04T08:46:23.549Z,88.36
2018-01-04T08:48:49.584Z,88.28
2018-01-04T08:51:15.586Z,88.06
2018-01-04T08:53:41.668Z,87.90
2018-01-04T08:56:07.692Z,87.67
2018-01-04T08:58:33.686Z,87.51
2018-01-04T09:00:59.757Z,87.53
2018-01-04T09:03:25.787Z,87.37
2018-01-04T09:05:51.874Z,87.15
2018-01-04T09:08:17.905Z,87.17
2018-01-04T09:10:43.950Z,87.02
2018-01-04T09:13:09.969Z,86.92
2018-01-04T09:15:36.041Z,86.92
2018-01-04T09:18:02.101Z,87.16
2018-01-04T09:20:28.073Z,87.07
2018-01-04T09:22:54.086Z,87.11
2018-01-04T09:25:20.084Z,87.06
2018-01-04T09:27:46.076Z,86.81
2018-01-04T09:30:12.121Z,86.91
2018-01-04T09:32:38.153Z,86.80
2018-01-04T09:35:04.221Z,86.44
2018-01-04T09:37:30.253Z,86.50
2018-01-04T09:39:56.249Z,86.69
2018-01-04T09:42:22.314Z,86.42
2018-01-04T09:44:48.393Z,86.10
2018-01-04T09:47:14.408Z,85.87
2018-01-04T09:49:40.486Z,85.59
2018-01-04T09:52:07.549Z,85.94
2018-01-04T09:54:33.612Z,85.34
2018-01-04T09:56:59.632Z,85.07
2018-01-04T09:59:25.648Z,85.22
2018-01-04T10:01:51.654Z,85.32
2018-01-04T10:04:17.664Z,85.24
2018-01-04T10:06:43.732Z,85.43
2018-01-04T10:09:09.761Z,85.24
2018-01-04T10:11:35.801Z,85.50
2018-01-04T10:14:01.837Z,85.00
2018-01-04T10:16:27.860Z,84.84
2018-01-04T10:18:53.893Z,84.76
2018-01-04T10:21:19.896Z,84.32
2018-01-04T10:23:45.993Z,84.76
2018-01-04T10:26:12.048Z,84.97
2018-01-04T10:28:38.091Z,84.95
2018-01-04T10:31:04.381Z,84.49
2018-01-04T10:33:30.525Z,84.48
2018-01-04T10:35:56.513Z,84.74
2018-01-04T10:38:22.540Z,84.86
2018-01-04T10:40:48.593Z,84.97
2018-01-04T10:43:14.638Z,84.62
2018-01-04T10:45:40.612Z,84.98
2018-01-04T10:48:06.776Z,84.71
2018-01-04T10:50:32.785Z,84.83
2018-01-04T10:52:58.897Z,83.92
2018-01-04T10:55:24.948Z,83.95
2018-01-04T10:57:50.985Z,84.04
2018-01-04T11:00:17.037Z,84.16
2018-01-04T11:02:43.084Z,84.33
2018-01-04T11:05:09.138Z,83.90
2018-01-04T11:07:35.244Z,83.31
2018-01-04T11:10:01.298Z,83.67
2018-01-04T11:12:27.433Z,82.86
2018-01-04T11:14:53.441Z,82.78
2018-01-04T11:17:19.513Z,83.21
2018-01-04T11:19:45.684Z,83.05
2018-01-04T11:22:11.764Z,82.83
2018-01-04T11:24:37.863Z,83.42
2018-01-04T11:27:03.849Z,82.73
2018-01-04T11:29:29.905Z,83.03
2018-01-04T11:31:55.861Z,83.04
2018-01-04T11:34:21.973Z,82.64
2018-01-04T11:36:47.959Z,82.74
2018-01-04T11:39:14.033Z,82.73
2018-01-04T11:41:40.045Z,82.84
2018-01-04T11:44:06.096Z,82.60
2018-01-04T11:46:32.173Z,83.23
2018-01-04T11:48:58.216Z,82.65
2018-01-04T11:51:24.241Z,82.68
2018-01-04T11:53:50.260Z,82.86
2018-01-04T11:56:16.314Z,83.26
2018-01-04T11:58:42.377Z,83.62
2018-01-04T12:01:08.410Z,83.83
2018-01-04T12:03:34.436Z,83.40
2018-01-04T12:06:00.485Z,83.98
2018-01-04T12:08:26.534Z,83.94
2018-01-04T12:10:52.628Z,84.31
2018-01-04T12:13:18.650Z,84.14
2018-01-04T12:15:44.673Z,85.14
2018-01-04T12:18:10.681Z,85.58
2018-01-04T12:20:36.740Z,85.11
2018-01-04T12:23:02.829Z,85.46
2018-01-04T12:25:28.832Z,85.98
2018-01-04T12:27:54.897Z,86.10
2018-01-04T12:30:20.934Z,86.43
2018-01-04T12:32:46.967Z,86.85
2018-01-04T12:35:13.009Z,87.00
2018-01-04T12:37:39.043Z,87.18
2018-01-04T12:40:05.104Z,87.33
2018-01-04T12:42:31.151Z,87.69
2018-01-04T12:44:57.211Z,88.40
2018-01-04T12:47:23.248Z,88.63
2018-01-04T12:49:49.317Z,89.34
2018-01-04T12:52:15.453Z,89.64
2018-01-04T12:54:41.510Z,89.69
2018-01-04T12:57:07.608Z,89.75
2018-01-04T12:59:33.642Z,90.09
2018-01-04T13:01:59.657Z,90.08
2018-01-04T13:04:25.685Z,90.61
2018-01-04T13:06:51.680Z,91.04
2018-01-04T13:09:17.688Z,91.20
2018-01-04T13:11:43.769Z,90.86
2018-01-04T13:14:09.792Z,91.37
2018-01-04T13:16:35.833Z,91.62
2018-01-04T13:19:01.858Z,90.86
2018-01-04T13:21:27.956Z,90.81
2018-01-04T13:23:53.913Z,90.72
2018-01-04T13:26:20.439Z,90.88
2018-01-04T13:28:46.793Z,90.83
2018-01-04T13:31:13.065Z,91.32
2018-01-04T13:33:39.134Z,91.58
2018-01-04T13:36:05.134Z,91.80
2018-01-04T13:38:31.509Z,91.96
2018-01-04T13:40:57.497Z,91.28
2018-01-04T13:43:23.512Z,91.40
2018-01-04T13:45:49.548Z,91.94
2018-01-04T13:48:15.604Z,91.64
2018-01-04T13:50:41.639Z,92.23
2018-01-04T13:53:07.743Z,92.12
2018-01-04T13:55:33.805Z,92.23
2018-01-04T13:57:59.817Z,92.76
2018-01-04T14:00:25.794Z,92.55
2018-01-04T14:02:51.832Z,92.83
2018-01-04T14:05:17.855Z,93.15
2018-01-04T14:07:43.916Z,93.05
2018-01-04T14:10:10.165Z,93.30
2018-01-04T14:12:36.236Z,92.66
2018-01-04T14:15:02.296Z,93.03
2018-01-04T14:17:28.406Z,92.77
2018-01-04T14:19:54.462Z,92.62
2018-01-04T14:22:20.685Z,92.47
2018-01-04T14:24:46.797Z,92.78
2018-01-04T14:27:12.894Z,92.87
2018-01-04T14:29:38.916Z,93.08
2018-01-04T14:32:04.906Z,93.33
2018-01-04T14:34:30.947Z,93.40
2018-01-04T14:36:56.996Z,93.45
2018-01-04T14:39:23.024Z,93.31
2018-01-04T14:41:49.033Z,93.37
2018-01-04T14:44:15.050Z,93.67
2018-01-04T14:46:41.033Z,93.53
2018-01-04T14:49:07.129Z,93.41
2018-01-04T14:51:33.212Z,93.42
2018-01-04T14:53:59.253Z,93.72
2018-01-04T14:56:25.356Z,93.59
2018-01-04T14:58:51.400Z,93.82
2018-01-04T15:01:17.485Z,93.87
2018-01-04T15:03:43.549Z,94.23
2018-01-04T15:06:09.556Z,94.28
2018-01-04T15:08:35.573Z,94.35
2018-01-04T15:11:01.581Z,94.23
2018-01-04T15:13:27.743Z,94.22
2018-01-04T15:15:53.752Z,94.34
2018-01-04T15:18:19.779Z,94.22
2018-01-04T15:20:45.815Z,94.39
2018-01-04T15:23:11.839Z,94.47
2018-01-04T15:25:37.884Z,94.54
2018-01-04T15:28:03.908Z,94.62
2018-01-04T15:30:29.917Z,94.49
2018-01-04T15:33:03.085Z,94.51
2018-01-04T15:35:29.153Z,94.47
2018-01-04T15:37:55.213Z,94.55
2018-01-04T15:40:21.298Z,94.46
2018-01-04T15:42:47.281Z,94.83
2018-01-04T15:45:13.405Z,95.06
2018-01-04T15:47:39.428Z,95.11
2018-01-04T15:50:05.437Z,94.76
2018-01-04T15:52:31.441Z,94.81
2018-01-04T15:54:57.456Z,94.67
2018-01-04T15:57:23.484Z,94.59
2018-01-04T15:59:49.512Z,94.64
2018-01-04T16:02:15.545Z,94.49
2018-01-04T16:04:41.604Z,94.43
2018-01-04T16:07:07.624Z,94.81
2018-01-04T16:09:39.965Z,94.85
2018-01-04T16:12:06.707Z,94.57
2018-01-04T16:14:32.867Z,95.02
2018-01-04T16:19:57.629Z,94.66
2018-01-04T16:22:50.461Z,94.58
2018-01-04T16:25:33.364Z,94.51
2018-01-04T16:31:01.150Z,94.20
2018-01-04T16:33:27.351Z,94.36
2018-01-04T16:35:53.361Z,94.73
2018-01-04T16:38:19.374Z,94.90
2018-01-04T16:40:45.433Z,94.91
2018-01-04T16:43:11.472Z,95.16
2018-01-04T16:45:37.555Z,94.93
2018-01-04T16:48:03.573Z,95.21
2018-01-04T16:50:29.577Z,95.25
2018-01-04T16:52:55.888Z,95.27
2018-01-04T16:55:21.907Z,95.41
2018-01-04T16:57:47.906Z,94.92
2018-01-04T17:00:13.937Z,94.76
2018-01-04T17:02:39.985Z,94.93
2018-01-04T17:05:06.038Z,95.33
2018-01-04T17:07:32.093Z,95.72
2018-01-04T17:09:58.157Z,96.05
2018-01-04T17:12:24.183Z,95.85
2018-01-04T17:14:50.143Z,95.82
2018-01-04T17:17:16.233Z,95.71
2018-01-04T17:19:42.269Z,95.63
2018-01-04T17:22:08.316Z,95.66
2018-01-04T17:24:34.345Z,95.65
2018-01-04T17:27:00.407Z,95.73
2018-01-04T17:29:26.468Z,95.53
2018-01-04T17:31:52.893Z,95.65
2018-01-04T17:34:18.941Z,95.82
2018-01-04T17:36:44.994Z,96.00
2018-01-04T17:39:11.053Z,96.17
2018-01-04T17:41:37.095Z,96.08
2018-01-04T17:44:03.110Z,96.25
2018-01-04T17:46:29.171Z,96.23
2018-01-04T17:48:55.191Z,96.12
2018-01-04T17:51:21.196Z,96.08
2018-01-04T17:53:47.249Z,96.06
2018-01-04T17:56:13.296Z,95.89
2018-01-04T17:58:39.321Z,96.19
2018-01-04T18:01:05.496Z,95.98
2018-01-04T18:03:32.165Z,96.29
2018-01-04T18:05:58.240Z,96.35
2018-01-04T18:08:24.261Z,96.59
2018-01-04T18:10:50.984Z,96.45
2018-01-04T18:13:17.047Z,96.25
2018-01-04T18:15:43.025Z,96.32
2018-01-04T18:18:09.106Z,96.45
2018-01-04T18:20:35.160Z,96.38
2018-01-04T18:23:01.197Z,96.11
2018-01-04T18:25:27.254Z,96.01
2018-01-04T18:27:53.272Z,96.00
2018-01-04T18:30:19.342Z,96.15
2018-01-04T18:32:45.338Z,96.10
2018-01-04T18:35:11.380Z,96.07
2018-01-04T18:37:37.418Z,96.11
2018-01-04T18:40:03.498Z,95.85
2018-01-04T18:42:29.869Z,96.06
2018-01-04T18:44:56.000Z,96.93
2018-01-04T18:47:22.058Z,97.58
2018-01-04T18:49:48.208Z,97.47
2018-01-04T18:52:14.576Z,96.51
2018-01-04T18:54:40.661Z,96.45
2018-01-04T18:57:06.716Z,96.77
2018-01-04T19:02:05.605Z,96.41
2018-01-04T19:04:31.689Z,95.34
2018-01-04T19:06:57.789Z,95.83
2018-01-04T19:09:23.928Z,96.03
2018-01-04T19:11:49.954Z,96.41
2018-01-04T19:14:16.359Z,96.08
2018-01-04T19:16:42.404Z,96.08
2018-01-04T19:19:08.482Z,96.56
2018-01-04T19:21:34.542Z,96.45
2018-01-04T19:24:00.631Z,96.96
2018-01-04T19:26:27.474Z,96.50
2018-01-04T19:28:53.485Z,96.32
2018-01-04T19:31:19.605Z,96.86
2018-01-04T19:33:45.681Z,96.99
2018-01-04T19:36:11.728Z,96.22
2018-01-04T19:38:37.761Z,95.84
2018-01-04T19:41:03.848Z,95.80
2018-01-04T19:43:29.933Z,95.65
2018-01-04T19:45:55.997Z,95.86
2018-01-04T19:48:22.016Z,96.37
2018-01-04T19:50:48.043Z,96.25
2018-01-04T19:53:14.571Z,96.33
2018-01-04T19:55:40.649Z,96.48
2018-01-04T19:58:06.656Z,96.51
2018-01-04T20:00:32.680Z,96.70
2018-01-04T20:02:58.785Z,96.74
2018-01-04T20:05:24.810Z,96.79
2018-01-04T20:07:51.309Z,96.86
2018-01-04T20:10:17.363Z,96.75
2018-01-04T20:12:43.437Z,97.25
2018-01-04T20:15:09.679Z,97.72
2018-01-04T20:17:35.700Z,97.41
2018-01-04T20:20:01.806Z,97.44
2018-01-04T20:22:27.925Z,97.03
2018-01-04T20:24:54.021Z,97.01
2018-01-04T20:27:20.121Z,97.26
2018-01-04T20:29:46.174Z,96.93
2018-01-04T20:32:12.452Z,96.70
2018-01-04T20:34:38.521Z,96.89
2018-01-04T20:37:04.614Z,96.87
2018-01-04T20:39:30.695Z,96.89
2018-01-04T20:41:56.734Z,97.43
2018-01-04T20:44:22.942Z,97.42
2018-01-04T20:46:49.067Z,97.26
2018-01-04T20:49:15.231Z,97.09
2018-01-04T20:51:41.357Z,96.93
2018-01-04T20:54:07.410Z,96.93
2018-01-04T20:56:33.497Z,96.86
2018-01-04T20:58:59.544Z,96.95
2018-01-04T21:01:25.624Z,96.93
2018-01-04T21:03:51.756Z,97.03
2018-01-04T21:06:17.862Z,97.20
2018-01-04T21:08:43.967Z,97.25
2018-01-04T21:11:10.150Z,97.37
2018-01-04T21:13:36.245Z,97.30
2018-01-04T21:16:02.505Z,97.53
2018-01-04T21:18:28.574Z,97.52
2018-01-04T21:20:54.666Z,97.54
2018-01-04T21:23:20.674Z,97.63
2018-01-04T21:25:46.762Z,97.68
2018-01-04T21:28:12.938Z,98.00
2018-01-04T21:30:39.856Z,97.90
2018-01-04T21:33:05.966Z,97.78
2018-01-04T21:35:32.037Z,97.72
2018-01-04T21:37:58.477Z,97.60
2018-01-04T21:40:24.581Z,97.44
2018-01-04T21:42:50.672Z,97.43
2018-01-04T21:45:16.834Z,97.48
2018-01-04T21:47:42.918Z,97.49
2018-01-04T21:50:09.106Z,97.48
2018-01-04T21:52:35.210Z,97.08
2018-01-04T21:55:01.290Z,96.78
2018-01-04T21:57:27.334Z,96.35
2018-01-04T21:59:53.501Z,95.91
2018-01-04T22:02:19.592Z,95.56
2018-01-04T22:04:46.000Z,94.99
2018-01-04T22:07:12.118Z,94.29
2018-01-04T22:09:38.145Z,93.71
2018-01-04T22:12:04.231Z,92.71
2018-01-04T22:14:30.299Z,92.64
2018-01-04T22:16:56.476Z,92.47
2018-01-04T22:19:22.771Z,91.64
2018-01-04T22:21:48.795Z,91.86
2018-01-04T22:24:15.024Z,91.83
2018-01-04T22:26:41.075Z,92.25
2018-01-04T22:29:07.117Z,92.00
2018-01-04T22:31:33.195Z,92.17
2018-01-04T22:33:59.326Z,92.51
2018-01-04T22:36:25.420Z,92.53
2018-01-04T22:38:51.465Z,92.73
2018-01-04T22:41:17.505Z,92.89
2018-01-04T22:43:43.585Z,93.15
2018-01-04T22:46:09.617Z,93.94
2018-01-04T22:48:35.702Z,94.14
2018-01-04T22:51:01.818Z,94.00
2018-01-04T22:53:27.846Z,93.57
2018-01-04T22:55:53.941Z,93.84
2018-01-04T22:58:20.026Z,94.51
2018-01-04T23:00:48.017Z,94.68
2018-01-04T23:03:14.217Z,94.71
2018-01-04T23:05:40.284Z,94.70
2018-01-04T23:08:06.805Z,93.93
2018-01-04T23:10:32.825Z,93.67
2018-01-04T23:12:59.906Z,93.53
2018-01-04T23:15:25.945Z,93.49
2018-01-04T23:17:52.014Z,93.53
2018-01-04T23:20:18.154Z,93.49
2018-01-04T23:22:44.205Z,93.37
2018-01-04T23:25:10.361Z,93.01
2018-01-04T23:27:36.381Z,92.91
2018-01-04T23:30:02.467Z,92.85
2018-01-04T23:32:28.489Z,91.61
2018-01-04T23:34:54.529Z,90.87
2018-01-04T23:37:20.586Z,90.91
2018-01-04T23:39:46.658Z,90.51
2018-01-04T23:42:13.052Z,90.23
2018-01-04T23:44:39.065Z,90.52
2018-01-04T23:47:05.230Z,89.51
2018-01-04T23:49:31.319Z,89.48
2018-01-04T23:51:57.397Z,88.47
2018-01-04T23:54:23.433Z,88.39
2018-01-04T23:56:49.579Z,88.06
2018-01-04T23:59:15.661Z,88.29
